createdAt,value
2018-02-27T00:00:18.297Z,1027.84
2018-02-27T00:01:27.120Z,1027.87
2018-02-27T00:02:35.946Z,1027.89
2018-02-27T00:03:44.764Z,1027.88
2018-02-27T00:04:53.583Z,1027.87
2018-02-27T00:06:02.406Z,1027.83
2018-02-27T00:07:11.228Z,1027.84
2018-02-27T00:08:20.052Z,1027.86
2018-02-27T00:09:28.872Z,1027.84
2018-02-27T00:10:37.699Z,1027.82
2018-02-27T00:11:46.525Z,1027.8
2018-02-27T00:12:55.642Z,1027.83
2018-02-27T00:14:04.461Z,1027.89
2018-02-27T00:15:13.284Z,1027.85
2018-02-27T00:16:22.108Z,1027.81
2018-02-27T00:17:30.926Z,1027.84
2018-02-27T00:18:39.749Z,1027.86
2018-02-27T00:19:48.572Z,1027.87
2018-02-27T00:20:57.390Z,1027.87
2018-02-27T00:22:06.214Z,1027.83
2018-02-27T00:23:15.039Z,1027.82
2018-02-27T00:24:23.862Z,1027.81
2018-02-27T00:25:32.682Z,1027.83
2018-02-27T00:26:41.502Z,1027.81
2018-02-27T00:27:50.322Z,1027.81
2018-02-27T00:28:59.145Z,1027.78
2018-02-27T00:30:07.964Z,1027.82
2018-02-27T00:31:16.787Z,1027.8
2018-02-27T00:32:25.609Z,1027.82
2018-02-27T00:33:34.431Z,1027.79
2018-02-27T00:34:43.253Z,1027.77
2018-02-27T00:35:52.126Z,1027.75
2018-02-27T00:37:01.226Z,1027.73
2018-02-27T00:38:10.049Z,1027.73
2018-02-27T00:39:19.157Z,1027.73
2018-02-27T00:40:27.979Z,1027.72
2018-02-27T00:41:36.799Z,1027.7
2018-02-27T00:42:45.619Z,1027.7
2018-02-27T00:43:54.440Z,1027.7
2018-02-27T00:45:03.260Z,1027.68
2018-02-27T00:46:12.081Z,1027.69
2018-02-27T00:47:21.278Z,1027.69
2018-02-27T00:48:30.099Z,1027.69
2018-02-27T00:49:38.919Z,1027.71
2018-02-27T00:50:47.741Z,1027.75
2018-02-27T00:51:56.562Z,1027.7
2018-02-27T00:53:05.535Z,1027.72
2018-02-27T00:54:14.359Z,1027.72
2018-02-27T00:55:23.176Z,1027.76
2018-02-27T00:56:32.000Z,1027.75
2018-02-27T00:57:40.820Z,1027.72
2018-02-27T00:58:50.043Z,1027.68
2018-02-27T00:59:58.865Z,1027.67
2018-02-27T01:01:07.688Z,1027.65
2018-02-27T01:02:16.507Z,1027.66
2018-02-27T01:03:25.328Z,1027.64
2018-02-27T01:04:34.148Z,1027.62
2018-02-27T01:05:42.970Z,1027.63
2018-02-27T01:06:51.798Z,1027.63
2018-02-27T01:08:00.613Z,1027.61
2018-02-27T01:09:09.435Z,1027.61
2018-02-27T01:10:18.256Z,1027.61
2018-02-27T01:11:27.083Z,1027.6
2018-02-27T01:12:35.899Z,1027.6
2018-02-27T01:13:44.720Z,1027.61
2018-02-27T01:14:53.547Z,1027.6
2018-02-27T01:16:02.614Z,1027.65
2018-02-27T01:17:11.436Z,1027.61
2018-02-27T01:18:20.258Z,1027.63
2018-02-27T01:19:29.081Z,1027.65
2018-02-27T01:20:37.950Z,1027.58
2018-02-27T01:21:46.771Z,1027.57
2018-02-27T01:22:55.593Z,1027.59
2018-02-27T01:24:04.692Z,1027.6
2018-02-27T01:25:13.513Z,1027.59
2018-02-27T01:26:22.340Z,1027.58
2018-02-27T01:27:31.204Z,1027.58
2018-02-27T01:28:40.026Z,1027.55
2018-02-27T01:29:48.848Z,1027.59
2018-02-27T01:30:57.672Z,1027.54
2018-02-27T01:32:06.494Z,1027.54
2018-02-27T01:33:15.467Z,1027.55
2018-02-27T01:34:24.287Z,1027.56
2018-02-27T01:35:33.110Z,1027.58
2018-02-27T01:36:41.931Z,1027.51
2018-02-27T01:37:50.750Z,1027.53
2018-02-27T01:38:59.674Z,1027.5
2018-02-27T01:40:08.769Z,1027.51
2018-02-27T01:41:17.595Z,1027.53
2018-02-27T01:42:26.412Z,1027.45
2018-02-27T01:43:35.233Z,1027.43
2018-02-27T01:44:44.155Z,1027.43
2018-02-27T01:45:52.977Z,1027.42
2018-02-27T01:47:01.797Z,1027.45
2018-02-27T01:48:10.899Z,1027.4
2018-02-27T01:49:19.719Z,1027.41
2018-02-27T01:50:28.841Z,1027.42
2018-02-27T01:51:37.666Z,1027.35
2018-02-27T01:52:46.491Z,1027.35
2018-02-27T01:53:55.314Z,1027.35
2018-02-27T01:55:04.137Z,1027.34
2018-02-27T01:56:12.960Z,1027.32
2018-02-27T01:57:21.785Z,1027.28
2018-02-27T01:58:30.608Z,1027.29
2018-02-27T01:59:39.430Z,1027.27
2018-02-27T02:00:48.257Z,1027.26
2018-02-27T02:01:57.181Z,1027.26
2018-02-27T02:03:06.277Z,1027.27
2018-02-27T02:04:15.098Z,1027.26
2018-02-27T02:05:24.196Z,1027.23
2018-02-27T02:06:33.290Z,1027.26
2018-02-27T02:07:42.390Z,1027.21
2018-02-27T02:08:51.211Z,1027.15
2018-02-27T02:10:00.032Z,1027.19
2018-02-27T02:11:08.852Z,1027.15
2018-02-27T02:12:17.676Z,1027.12
2018-02-27T02:13:26.598Z,1027.14
2018-02-27T02:14:35.698Z,1027.12
2018-02-27T02:15:44.519Z,1027.14
2018-02-27T02:16:53.339Z,1027.13
2018-02-27T02:18:02.162Z,1027.14
2018-02-27T02:19:11.564Z,1027.12
2018-02-27T02:20:20.665Z,1027.11
2018-02-27T02:21:29.489Z,1027.06
2018-02-27T02:22:38.592Z,1027.12
2018-02-27T02:23:47.412Z,1027.07
2018-02-27T02:24:56.486Z,1027.1
2018-02-27T02:26:05.307Z,1027.06
2018-02-27T02:27:14.127Z,1027.1
2018-02-27T02:28:22.949Z,1027.06
2018-02-27T02:29:31.773Z,1027.01
2018-02-27T02:30:40.595Z,1026.96
2018-02-27T02:31:49.421Z,1027.01
2018-02-27T02:32:58.249Z,1027.02
2018-02-27T02:34:07.065Z,1027
2018-02-27T02:35:16.175Z,1026.97
2018-02-27T02:36:25.144Z,1026.96
2018-02-27T02:37:33.969Z,1026.98
2018-02-27T02:38:42.797Z,1027
2018-02-27T02:39:51.618Z,1026.98
2018-02-27T02:41:00.440Z,1026.98
2018-02-27T02:42:09.267Z,1027
2018-02-27T02:43:18.362Z,1026.97
2018-02-27T02:44:27.183Z,1027.03
2018-02-27T02:45:36.009Z,1026.98
2018-02-27T02:46:44.831Z,1026.96
2018-02-27T02:47:53.704Z,1026.99
2018-02-27T02:49:02.527Z,1026.98
2018-02-27T02:50:11.348Z,1026.96
2018-02-27T02:51:20.444Z,1026.92
2018-02-27T02:52:29.266Z,1026.96
2018-02-27T02:53:38.088Z,1026.96
2018-02-27T02:54:46.912Z,1026.96
2018-02-27T02:55:55.738Z,1026.9
2018-02-27T02:57:04.555Z,1026.95
2018-02-27T02:58:13.375Z,1026.87
2018-02-27T02:59:22.195Z,1026.87
2018-02-27T03:00:31.294Z,1026.84
2018-02-27T03:01:40.118Z,1026.86
2018-02-27T03:02:48.936Z,1026.83
2018-02-27T03:03:57.759Z,1026.83
2018-02-27T03:05:06.882Z,1026.82
2018-02-27T03:06:15.708Z,1026.78
2018-02-27T03:07:24.528Z,1026.79
2018-02-27T03:08:33.354Z,1026.8
2018-02-27T03:09:42.450Z,1026.8
2018-02-27T03:10:51.523Z,1026.81
2018-02-27T03:12:00.345Z,1026.82
2018-02-27T03:13:09.167Z,1026.83
2018-02-27T03:14:17.992Z,1026.81
2018-02-27T03:15:26.818Z,1026.81
2018-02-27T03:16:35.787Z,1026.8
2018-02-27T03:17:44.606Z,1026.79
2018-02-27T03:18:53.428Z,1026.79
2018-02-27T03:20:02.249Z,1026.78
2018-02-27T03:21:11.070Z,1026.76
2018-02-27T03:22:20.324Z,1026.8
2018-02-27T03:23:29.144Z,1026.78
2018-02-27T03:24:37.968Z,1026.76
2018-02-27T03:25:46.792Z,1026.76
2018-02-27T03:26:55.613Z,1026.75
2018-02-27T03:28:04.585Z,1026.75
2018-02-27T03:29:13.406Z,1026.73
2018-02-27T03:30:22.228Z,1026.72
2018-02-27T03:31:31.334Z,1026.69
2018-02-27T03:32:40.157Z,1026.67
2018-02-27T03:33:48.979Z,1026.67
2018-02-27T03:34:57.801Z,1026.63
2018-02-27T03:36:06.627Z,1026.63
2018-02-27T03:37:15.445Z,1026.58
2018-02-27T03:38:24.264Z,1026.62
2018-02-27T03:39:33.486Z,1026.59
2018-02-27T03:40:42.588Z,1026.54
2018-02-27T03:41:51.688Z,1026.56
2018-02-27T03:43:00.507Z,1026.54
2018-02-27T03:44:09.330Z,1026.54
2018-02-27T03:45:18.150Z,1026.52
2018-02-27T03:46:26.975Z,1026.46
2018-02-27T03:47:35.790Z,1026.5
2018-02-27T03:48:44.613Z,1026.46
2018-02-27T03:49:53.434Z,1026.46
2018-02-27T03:51:02.406Z,1026.45
2018-02-27T03:52:11.230Z,1026.43
2018-02-27T03:53:20.049Z,1026.43
2018-02-27T03:54:28.870Z,1026.39
2018-02-27T03:55:37.693Z,1026.4
2018-02-27T03:56:46.665Z,1026.31
2018-02-27T03:57:55.485Z,1026.3
2018-02-27T03:59:04.305Z,1026.29
2018-02-27T04:00:13.126Z,1026.28
2018-02-27T04:01:21.947Z,1026.21
2018-02-27T04:02:31.067Z,1026.23
2018-02-27T04:03:40.188Z,1026.23
2018-02-27T04:04:49.008Z,1026.2
2018-02-27T04:05:57.826Z,1026.27
2018-02-27T04:07:06.652Z,1026.26
2018-02-27T04:08:15.639Z,1026.27
2018-02-27T04:09:24.443Z,1026.27
2018-02-27T04:10:33.265Z,1026.25
2018-02-27T04:11:42.087Z,1026.25
2018-02-27T04:12:50.908Z,1026.24
2018-02-27T04:13:59.830Z,1026.18
2018-02-27T04:15:08.651Z,1026.19
2018-02-27T04:16:17.474Z,1026.21
2018-02-27T04:17:26.293Z,1026.21
2018-02-27T04:18:35.391Z,1026.18
2018-02-27T04:19:44.497Z,1026.22
2018-02-27T04:20:53.318Z,1026.18
2018-02-27T04:22:02.140Z,1026.24
2018-02-27T04:23:10.960Z,1026.24
2018-02-27T04:24:19.778Z,1026.2
2018-02-27T04:25:28.750Z,1026.22
2018-02-27T04:26:37.577Z,1026.18
2018-02-27T04:27:46.398Z,1026.29
2018-02-27T04:28:55.219Z,1026.25
2018-02-27T04:30:04.041Z,1026.19
2018-02-27T04:31:13.015Z,1026.19
2018-02-27T04:32:21.834Z,1026.12
2018-02-27T04:33:30.935Z,1026.09
2018-02-27T04:34:39.756Z,1026.14
2018-02-27T04:35:48.861Z,1026.1
2018-02-27T04:36:57.779Z,1026.06
2018-02-27T04:38:06.599Z,1026.07
2018-02-27T04:39:15.434Z,1026.09
2018-02-27T04:40:24.252Z,1026.12
2018-02-27T04:41:33.074Z,1026.07
2018-02-27T04:42:42.044Z,1026.08
2018-02-27T04:43:50.864Z,1026.1
2018-02-27T04:44:59.685Z,1026.15
2018-02-27T04:46:08.512Z,1026.13
2018-02-27T04:47:17.332Z,1026.16
2018-02-27T04:48:26.255Z,1026.16
2018-02-27T04:49:35.077Z,1026.14
2018-02-27T04:50:43.896Z,1026.19
2018-02-27T04:51:52.997Z,1026.17
2018-02-27T04:53:01.820Z,1026.17
2018-02-27T04:54:10.637Z,1026.16
2018-02-27T04:55:19.464Z,1026.18
2018-02-27T04:56:28.285Z,1026.14
2018-02-27T04:57:37.103Z,1026.16
2018-02-27T04:58:45.922Z,1026.17
2018-02-27T04:59:55.045Z,1026.08
2018-02-27T05:01:03.869Z,1026.13
2018-02-27T05:02:12.686Z,1026.12
2018-02-27T05:03:21.511Z,1026.09
2018-02-27T05:04:30.327Z,1026.11
2018-02-27T05:05:39.448Z,1026.07
2018-02-27T05:06:48.547Z,1026.06
2018-02-27T05:07:57.367Z,1026.05
2018-02-27T05:09:06.196Z,1026.03
2018-02-27T05:10:15.563Z,1026.01
2018-02-27T05:11:24.385Z,1025.99
2018-02-27T05:12:33.228Z,1025.99
2018-02-27T05:13:42.324Z,1025.96
2018-02-27T05:14:51.420Z,1025.98
2018-02-27T05:16:00.242Z,1025.96
2018-02-27T05:17:09.468Z,1025.93
2018-02-27T05:18:18.293Z,1025.91
2018-02-27T05:19:27.392Z,1025.95
2018-02-27T05:20:36.211Z,1025.92
2018-02-27T05:21:45.032Z,1025.91
2018-02-27T05:22:54.000Z,1025.9
2018-02-27T05:24:02.869Z,1025.9
2018-02-27T05:25:11.688Z,1025.86
2018-02-27T05:26:20.508Z,1025.85
2018-02-27T05:27:29.330Z,1025.85
2018-02-27T05:28:38.432Z,1025.9
2018-02-27T05:29:47.254Z,1025.89
2018-02-27T05:30:56.073Z,1025.89
2018-02-27T05:32:04.894Z,1025.85
2018-02-27T05:33:13.713Z,1025.82
2018-02-27T05:34:22.636Z,1025.86
2018-02-27T05:35:31.458Z,1025.87
2018-02-27T05:36:40.277Z,1025.83
2018-02-27T05:37:49.097Z,1025.9
2018-02-27T05:38:58.196Z,1025.85
2018-02-27T05:40:07.414Z,1025.86
2018-02-27T05:41:16.237Z,1025.82
2018-02-27T05:42:25.055Z,1025.81
2018-02-27T05:43:33.881Z,1025.77
2018-02-27T05:44:42.703Z,1025.74
2018-02-27T05:45:51.525Z,1025.76
2018-02-27T05:47:00.620Z,1025.79
2018-02-27T05:48:09.725Z,1025.68
2018-02-27T05:49:18.594Z,1025.73
2018-02-27T05:50:27.364Z,1025.67
2018-02-27T05:51:36.334Z,1025.66
2018-02-27T05:52:45.155Z,1025.65
2018-02-27T05:53:53.977Z,1025.62
2018-02-27T05:55:02.796Z,1025.7
2018-02-27T05:56:11.617Z,1025.68
2018-02-27T05:57:20.813Z,1025.71
2018-02-27T05:58:30.188Z,1025.72
2018-02-27T05:59:39.281Z,1025.69
2018-02-27T06:00:48.104Z,1025.7
2018-02-27T06:01:57.205Z,1025.66
2018-02-27T06:03:06.684Z,1025.65
2018-02-27T06:04:15.508Z,1025.63
2018-02-27T06:05:24.324Z,1025.6
2018-02-27T06:06:33.145Z,1025.63
2018-02-27T06:07:41.968Z,1025.66
2018-02-27T06:08:50.836Z,1025.65
2018-02-27T06:09:59.658Z,1025.63
2018-02-27T06:11:08.482Z,1025.63
2018-02-27T06:12:17.302Z,1025.67
2018-02-27T06:13:26.122Z,1025.64
2018-02-27T06:14:34.941Z,1025.7
2018-02-27T06:15:44.039Z,1025.72
2018-02-27T06:16:52.863Z,1025.68
2018-02-27T06:18:01.681Z,1025.68
2018-02-27T06:19:10.503Z,1025.66
2018-02-27T06:20:19.426Z,1025.64
2018-02-27T06:21:28.245Z,1025.61
2018-02-27T06:22:37.065Z,1025.64
2018-02-27T06:23:45.891Z,1025.64
2018-02-27T06:24:55.023Z,1025.62
2018-02-27T06:26:03.839Z,1025.63
2018-02-27T06:27:12.659Z,1025.65
2018-02-27T06:28:21.504Z,1025.64
2018-02-27T06:29:30.325Z,1025.61
2018-02-27T06:30:39.148Z,1025.62
2018-02-27T06:31:48.242Z,1025.64
2018-02-27T06:32:57.062Z,1025.65
2018-02-27T06:34:05.883Z,1025.63
2018-02-27T06:35:14.704Z,1025.64
2018-02-27T06:36:23.523Z,1025.66
2018-02-27T06:37:32.623Z,1025.64
2018-02-27T06:38:41.445Z,1025.68
2018-02-27T06:39:50.266Z,1025.65
2018-02-27T06:40:59.085Z,1025.67
2018-02-27T06:42:07.905Z,1025.67
2018-02-27T06:43:16.726Z,1025.67
2018-02-27T06:44:25.547Z,1025.66
2018-02-27T06:45:34.647Z,1025.65
2018-02-27T06:46:43.667Z,1025.71
2018-02-27T06:47:52.487Z,1025.65
2018-02-27T06:49:01.308Z,1025.68
2018-02-27T06:50:10.132Z,1025.66
2018-02-27T06:51:18.949Z,1025.69
2018-02-27T06:52:28.342Z,1025.72
2018-02-27T06:53:37.162Z,1025.7
2018-02-27T06:54:45.982Z,1025.72
2018-02-27T06:55:54.802Z,1025.7
2018-02-27T06:57:03.626Z,1025.69
2018-02-27T06:58:12.820Z,1025.66
2018-02-27T06:59:21.920Z,1025.67
2018-02-27T07:00:30.740Z,1025.68
2018-02-27T07:01:39.562Z,1025.64
2018-02-27T07:02:48.381Z,1025.67
2018-02-27T07:03:57.503Z,1025.62
2018-02-27T07:05:06.600Z,1025.64
2018-02-27T07:06:15.420Z,1025.62
2018-02-27T07:07:24.239Z,1025.63
2018-02-27T07:08:33.337Z,1025.61
2018-02-27T07:09:42.308Z,1025.62
2018-02-27T07:10:51.128Z,1025.62
2018-02-27T07:11:59.949Z,1025.6
2018-02-27T07:13:08.770Z,1025.61
2018-02-27T07:14:17.591Z,1025.59
2018-02-27T07:15:26.467Z,1025.61
2018-02-27T07:16:35.283Z,1025.6
2018-02-27T07:17:44.386Z,1025.56
2018-02-27T07:18:53.208Z,1025.55
2018-02-27T07:20:02.350Z,1025.61
2018-02-27T07:21:11.270Z,1025.63
2018-02-27T07:22:20.094Z,1025.57
2018-02-27T07:23:28.913Z,1025.62
2018-02-27T07:24:37.735Z,1025.62
2018-02-27T07:25:46.555Z,1025.63
2018-02-27T07:26:55.478Z,1025.57
2018-02-27T07:28:04.299Z,1025.59
2018-02-27T07:29:13.125Z,1025.59
2018-02-27T07:30:21.943Z,1025.57
2018-02-27T07:31:30.765Z,1025.6
2018-02-27T07:32:39.690Z,1025.62
2018-02-27T07:33:48.508Z,1025.63
2018-02-27T07:34:57.327Z,1025.57
2018-02-27T07:36:06.148Z,1025.62
2018-02-27T07:37:14.969Z,1025.61
2018-02-27T07:38:23.891Z,1025.58
2018-02-27T07:39:33.006Z,1025.64
2018-02-27T07:40:41.829Z,1025.57
2018-02-27T07:41:50.795Z,1025.6
2018-02-27T07:42:59.617Z,1025.6
2018-02-27T07:44:08.488Z,1025.6
2018-02-27T07:45:17.312Z,1025.57
2018-02-27T07:46:26.134Z,1025.59
2018-02-27T07:47:34.955Z,1025.55
2018-02-27T07:48:43.780Z,1025.58
2018-02-27T07:49:52.904Z,1025.61
2018-02-27T07:51:01.723Z,1025.6
2018-02-27T07:52:10.547Z,1025.57
2018-02-27T07:53:19.367Z,1025.58
2018-02-27T07:54:28.189Z,1025.53
2018-02-27T07:55:37.110Z,1025.56
2018-02-27T07:56:45.935Z,1025.5
2018-02-27T07:57:54.757Z,1025.54
2018-02-27T07:59:03.589Z,1025.53
2018-02-27T08:00:12.415Z,1025.54
2018-02-27T08:01:21.383Z,1025.54
2018-02-27T08:02:30.207Z,1025.59
2018-02-27T08:03:39.027Z,1025.56
2018-02-27T08:04:47.850Z,1025.56
2018-02-27T08:05:56.674Z,1025.57
2018-02-27T08:07:05.648Z,1025.57
2018-02-27T08:08:14.471Z,1025.51
2018-02-27T08:09:23.572Z,1025.55
2018-02-27T08:10:32.396Z,1025.6
2018-02-27T08:11:41.216Z,1025.56
2018-02-27T08:12:50.188Z,1025.55
2018-02-27T08:13:59.008Z,1025.53
2018-02-27T08:15:07.831Z,1025.56
2018-02-27T08:16:16.678Z,1025.56
2018-02-27T08:17:25.477Z,1025.62
2018-02-27T08:18:34.446Z,1025.6
2018-02-27T08:19:43.267Z,1025.57
2018-02-27T08:20:52.091Z,1025.58
2018-02-27T08:22:00.914Z,1025.61
2018-02-27T08:23:09.746Z,1025.63
2018-02-27T08:24:18.891Z,1025.63
2018-02-27T08:25:27.716Z,1025.59
2018-02-27T08:26:36.595Z,1025.59
2018-02-27T08:27:45.364Z,1025.59
2018-02-27T08:28:54.184Z,1025.58
2018-02-27T08:30:03.060Z,1025.55
2018-02-27T08:31:11.881Z,1025.59
2018-02-27T08:32:20.705Z,1025.58
2018-02-27T08:33:29.528Z,1025.57
2018-02-27T08:34:38.350Z,1025.59
2018-02-27T08:35:47.224Z,1025.55
2018-02-27T08:36:56.048Z,1025.55
2018-02-27T08:38:04.873Z,1025.54
2018-02-27T08:39:13.694Z,1025.56
2018-02-27T08:40:22.518Z,1025.51
2018-02-27T08:41:31.394Z,1025.5
2018-02-27T08:42:40.219Z,1025.53
2018-02-27T08:43:49.043Z,1025.5
2018-02-27T08:44:57.868Z,1025.48
2018-02-27T08:46:06.692Z,1025.46
2018-02-27T08:47:15.894Z,1025.48
2018-02-27T08:48:24.722Z,1025.44
2018-02-27T08:49:33.822Z,1025.48
2018-02-27T08:50:42.646Z,1025.47
2018-02-27T08:51:51.751Z,1025.45
2018-02-27T08:53:00.677Z,1025.52
2018-02-27T08:54:09.499Z,1025.5
2018-02-27T08:55:18.322Z,1025.47
2018-02-27T08:56:27.425Z,1025.44
2018-02-27T08:57:36.255Z,1025.47
2018-02-27T08:58:45.183Z,1025.45
2018-02-27T08:59:54.013Z,1025.46
2018-02-27T09:01:02.842Z,1025.49
2018-02-27T09:02:11.661Z,1025.43
2018-02-27T09:03:20.487Z,1025.43
2018-02-27T09:04:29.410Z,1025.47
2018-02-27T09:05:38.238Z,1025.39
2018-02-27T09:06:47.066Z,1025.43
2018-02-27T09:07:56.169Z,1025.44
2018-02-27T09:09:04.992Z,1025.38
2018-02-27T09:10:14.117Z,1025.41
2018-02-27T09:11:22.942Z,1025.41
2018-02-27T09:12:32.042Z,1025.42
2018-02-27T09:13:40.865Z,1025.35
2018-02-27T09:14:50.080Z,1025.41
2018-02-27T09:15:59.194Z,1025.44
2018-02-27T09:17:08.020Z,1025.36
2018-02-27T09:18:16.846Z,1025.35
2018-02-27T09:19:25.669Z,1025.33
2018-02-27T09:20:34.494Z,1025.31
2018-02-27T09:21:43.320Z,1025.29
2018-02-27T09:22:52.441Z,1025.36
2018-02-27T09:24:01.267Z,1025.33
2018-02-27T09:25:10.367Z,1025.3
2018-02-27T09:26:19.192Z,1025.28
2018-02-27T09:27:28.017Z,1025.31
2018-02-27T09:28:36.841Z,1025.24
2018-02-27T09:29:45.668Z,1025.3
2018-02-27T09:30:54.494Z,1025.23
2018-02-27T09:32:03.320Z,1025.26
2018-02-27T09:33:12.196Z,1025.25
2018-02-27T09:34:21.298Z,1025.22
2018-02-27T09:35:30.120Z,1025.18
2018-02-27T09:36:38.944Z,1025.2
2018-02-27T09:37:47.771Z,1025.21
2018-02-27T09:38:56.748Z,1025.2
2018-02-27T09:40:05.572Z,1025.23
2018-02-27T09:41:14.685Z,1025.17
2018-02-27T09:42:23.510Z,1025.17
2018-02-27T09:43:32.334Z,1025.12
2018-02-27T09:44:41.207Z,1025.1
2018-02-27T09:45:50.049Z,1025.1
2018-02-27T09:46:58.853Z,1025.09
2018-02-27T09:48:07.680Z,1025.12
2018-02-27T09:49:16.785Z,1025.11
2018-02-27T09:50:25.760Z,1025.11
2018-02-27T09:51:34.587Z,1025.1
2018-02-27T09:52:43.412Z,1025.08
2018-02-27T09:53:52.240Z,1025.07
2018-02-27T09:55:01.060Z,1025.03
2018-02-27T09:56:10.035Z,1025.06
2018-02-27T09:57:18.893Z,1025.05
2018-02-27T09:58:27.683Z,1025.05
2018-02-27T09:59:36.506Z,1025.04
2018-02-27T10:00:45.332Z,1024.99
2018-02-27T10:01:54.156Z,1025
2018-02-27T10:03:02.981Z,1024.98
2018-02-27T10:04:11.806Z,1025.07
2018-02-27T10:05:20.631Z,1025.04
2018-02-27T10:06:29.455Z,1025.03
2018-02-27T10:07:38.662Z,1025.02
2018-02-27T10:08:47.488Z,1025.01
2018-02-27T10:09:56.591Z,1024.99
2018-02-27T10:11:05.440Z,1024.99
2018-02-27T10:12:14.242Z,1025.04
2018-02-27T10:13:23.123Z,1024.98
2018-02-27T10:14:31.946Z,1025.03
2018-02-27T10:15:40.774Z,1024.98
2018-02-27T10:16:49.597Z,1024.96
2018-02-27T10:17:58.421Z,1024.98
2018-02-27T10:19:07.245Z,1024.98
2018-02-27T10:20:16.066Z,1024.94
2018-02-27T10:21:24.891Z,1024.93
2018-02-27T10:22:33.714Z,1024.91
2018-02-27T10:23:42.537Z,1024.91
2018-02-27T10:24:51.460Z,1024.92
2018-02-27T10:26:00.568Z,1024.87
2018-02-27T10:27:09.771Z,1024.89
2018-02-27T10:28:18.596Z,1024.86
2018-02-27T10:29:27.422Z,1024.87
2018-02-27T10:30:36.330Z,1024.82
2018-02-27T10:31:45.123Z,1024.8
2018-02-27T10:32:53.948Z,1024.77
2018-02-27T10:34:02.874Z,1024.78
2018-02-27T10:35:11.701Z,1024.75
2018-02-27T10:36:20.727Z,1024.81
2018-02-27T10:37:29.556Z,1024.77
2018-02-27T10:38:38.656Z,1024.74
2018-02-27T10:39:47.479Z,1024.76
2018-02-27T10:40:56.587Z,1024.72
2018-02-27T10:42:05.560Z,1024.67
2018-02-27T10:43:14.384Z,1024.77
2018-02-27T10:44:23.210Z,1024.7
2018-02-27T10:45:32.039Z,1024.68
2018-02-27T10:46:40.861Z,1024.64
2018-02-27T10:47:49.987Z,1024.64
2018-02-27T10:48:58.814Z,1024.61
2018-02-27T10:50:07.640Z,1024.61
2018-02-27T10:51:16.463Z,1024.62
2018-02-27T10:52:25.287Z,1024.63
2018-02-27T10:53:34.110Z,1024.71
2018-02-27T10:54:42.938Z,1024.68
2018-02-27T10:55:51.764Z,1024.67
2018-02-27T10:57:00.875Z,1024.67
2018-02-27T10:58:09.707Z,1024.69
2018-02-27T10:59:18.533Z,1024.61
2018-02-27T11:00:27.360Z,1024.64
2018-02-27T11:01:36.184Z,1024.62
2018-02-27T11:02:45.011Z,1024.61
2018-02-27T11:03:53.837Z,1024.61
2018-02-27T11:05:02.812Z,1024.68
2018-02-27T11:06:11.638Z,1024.64
2018-02-27T11:07:20.750Z,1024.64
2018-02-27T11:08:29.572Z,1024.63
2018-02-27T11:09:38.403Z,1024.59
2018-02-27T11:10:47.654Z,1024.57
2018-02-27T11:11:56.480Z,1024.59
2018-02-27T11:13:05.309Z,1024.61
2018-02-27T11:14:14.138Z,1024.62
2018-02-27T11:15:23.239Z,1024.62
2018-02-27T11:16:32.215Z,1024.6
2018-02-27T11:17:41.043Z,1024.61
2018-02-27T11:18:49.873Z,1024.65
2018-02-27T11:19:58.700Z,1024.57
2018-02-27T11:21:07.527Z,1024.54
2018-02-27T11:22:16.457Z,1024.49
2018-02-27T11:23:25.283Z,1024.49
2018-02-27T11:24:34.119Z,1024.51
2018-02-27T11:25:42.940Z,1024.47
2018-02-27T11:26:51.768Z,1024.49
2018-02-27T11:28:00.603Z,1024.5
2018-02-27T11:29:09.423Z,1024.49
2018-02-27T11:30:18.305Z,1024.5
2018-02-27T11:31:27.085Z,1024.47
2018-02-27T11:32:35.911Z,1024.51
2018-02-27T11:33:44.790Z,1024.41
2018-02-27T11:34:53.620Z,1024.37
2018-02-27T11:36:02.727Z,1024.37
2018-02-27T11:37:11.558Z,1024.37
2018-02-27T11:38:20.388Z,1024.31
2018-02-27T11:39:29.469Z,1024.33
2018-02-27T11:40:38.297Z,1024.32
2018-02-27T11:41:47.128Z,1024.3
2018-02-27T11:42:55.957Z,1024.26
2018-02-27T11:44:04.886Z,1024.23
2018-02-27T11:45:13.766Z,1024.24
2018-02-27T11:46:22.876Z,1024.27
2018-02-27T11:47:31.708Z,1024.25
2018-02-27T11:48:40.535Z,1024.21
2018-02-27T11:49:49.361Z,1024.15
2018-02-27T11:50:58.492Z,1024.16
2018-02-27T11:52:07.320Z,1024.22
2018-02-27T11:53:16.147Z,1024.23
2018-02-27T11:54:24.977Z,1024.18
2018-02-27T11:55:33.806Z,1024.21
2018-02-27T11:56:42.882Z,1024.17
2018-02-27T11:57:51.710Z,1024.16
2018-02-27T11:59:00.539Z,1024.18
2018-02-27T12:00:09.368Z,1024.15
2018-02-27T12:01:18.198Z,1024.11
2018-02-27T12:02:27.026Z,1024.13
2018-02-27T12:03:35.856Z,1024.08
2018-02-27T12:04:44.685Z,1024.07
2018-02-27T12:05:53.517Z,1024.04
2018-02-27T12:07:02.340Z,1024.04
2018-02-27T12:08:11.169Z,1024.02
2018-02-27T12:09:19.998Z,1024.02
2018-02-27T12:10:28.826Z,1024.01
2018-02-27T12:11:37.654Z,1024
2018-02-27T12:12:46.482Z,1024.01
2018-02-27T12:13:55.988Z,1024.02
2018-02-27T12:15:04.824Z,1024.06
2018-02-27T12:16:13.650Z,1023.98
2018-02-27T12:17:22.479Z,1023.96
2018-02-27T12:18:31.309Z,1023.98
2018-02-27T12:19:40.200Z,1024.03
2018-02-27T12:20:48.966Z,1024.03
2018-02-27T12:21:57.801Z,1023.99
2018-02-27T12:23:06.632Z,1023.87
2018-02-27T12:24:15.462Z,1023.95
2018-02-27T12:25:24.591Z,1023.94
2018-02-27T12:26:33.423Z,1023.93
2018-02-27T12:27:42.254Z,1023.91
2018-02-27T12:28:51.085Z,1023.87
2018-02-27T12:29:59.911Z,1023.89
2018-02-27T12:31:08.838Z,1023.9
2018-02-27T12:32:17.669Z,1024.01
2018-02-27T12:33:26.780Z,1023.9
2018-02-27T12:34:35.611Z,1023.93
2018-02-27T12:35:44.442Z,1023.93
2018-02-27T12:36:53.373Z,1023.88
2018-02-27T12:38:02.208Z,1023.86
2018-02-27T12:39:11.032Z,1023.88
2018-02-27T12:40:19.868Z,1023.86
2018-02-27T12:41:28.694Z,1023.85
2018-02-27T12:42:37.521Z,1023.86
2018-02-27T12:43:46.349Z,1023.81
2018-02-27T12:44:55.180Z,1023.88
2018-02-27T12:46:04.011Z,1023.8
2018-02-27T12:47:12.841Z,1023.8
2018-02-27T12:48:21.822Z,1023.8
2018-02-27T12:49:30.654Z,1023.74
2018-02-27T12:50:39.758Z,1023.72
2018-02-27T12:51:48.591Z,1023.69
2018-02-27T12:52:57.423Z,1023.75
2018-02-27T12:54:06.306Z,1023.67
2018-02-27T12:55:15.138Z,1023.62
2018-02-27T12:56:23.970Z,1023.59
2018-02-27T12:57:32.800Z,1023.58
2018-02-27T12:58:41.631Z,1023.62
2018-02-27T12:59:50.947Z,1023.6
2018-02-27T13:00:59.776Z,1023.62
2018-02-27T13:02:08.607Z,1023.55
2018-02-27T13:03:17.437Z,1023.57
2018-02-27T13:04:26.271Z,1023.57
2018-02-27T13:05:35.204Z,1023.56
2018-02-27T13:06:44.034Z,1023.55
2018-02-27T13:07:52.871Z,1023.5
2018-02-27T13:09:01.984Z,1023.52
2018-02-27T13:10:10.811Z,1023.5
2018-02-27T13:11:19.769Z,1023.45
2018-02-27T13:12:28.574Z,1023.45
2018-02-27T13:13:37.679Z,1023.42
2018-02-27T13:14:46.508Z,1023.43
2018-02-27T13:15:55.337Z,1023.44
2018-02-27T13:17:04.325Z,1023.4
2018-02-27T13:18:13.431Z,1023.37
2018-02-27T13:19:22.260Z,1023.38
2018-02-27T13:20:31.098Z,1023.42
2018-02-27T13:21:39.931Z,1023.37
2018-02-27T13:22:48.762Z,1023.39
2018-02-27T13:23:57.873Z,1023.4
2018-02-27T13:25:06.707Z,1023.29
2018-02-27T13:26:15.540Z,1023.33
2018-02-27T13:27:24.371Z,1023.35
2018-02-27T13:28:33.455Z,1023.31
2018-02-27T13:29:42.288Z,1023.29
2018-02-27T13:30:51.120Z,1023.35
2018-02-27T13:31:59.954Z,1023.32
2018-02-27T13:33:08.789Z,1023.31
2018-02-27T13:34:17.622Z,1023.28
2018-02-27T13:35:26.456Z,1023.27
2018-02-27T13:36:35.289Z,1023.27
2018-02-27T13:37:44.122Z,1023.28
2018-02-27T13:38:52.963Z,1023.19
2018-02-27T13:40:02.166Z,1023.19
2018-02-27T13:41:10.999Z,1023.28
2018-02-27T13:42:19.830Z,1023.25
2018-02-27T13:43:28.939Z,1023.19
2018-02-27T13:44:37.771Z,1023.23
2018-02-27T13:45:47.176Z,1023.18
2018-02-27T13:46:56.287Z,1023.17
2018-02-27T13:48:05.119Z,1023.17
2018-02-27T13:49:13.978Z,1023.23
2018-02-27T13:50:22.787Z,1023.11
2018-02-27T13:51:31.770Z,1023.14
2018-02-27T13:52:40.605Z,1023.16
2018-02-27T13:53:49.438Z,1023.17
2018-02-27T13:54:58.269Z,1023.19
2018-02-27T13:56:07.100Z,1023.2